sensor_id;sensor_type;location;lat;lon;timestamp;P1;durP1;ratioP1;P2;durP2;ratioP2
73132;SDS011;61320;52.008;4.530;2022-09-12T01:45:55;13.02;;;13.02;;
73132;SDS011;61320;52.008;4.530;2022-09-12T01:48:34;13.50;;;13.50;;
73132;SDS011;61320;52.008;4.530;2022-09-12T01:51:21;13.26;;;13.26;;
73132;SDS011;61320;52.008;4.530;2022-09-12T01:53:59;13.62;;;13.62;;
73132;SDS011;61320;52.008;4.530;2022-09-12T01:56:47;13.24;;;13.24;;
73132;SDS011;61320;52.008;4.530;2022-09-12T01:59:19;13.29;;;13.29;;
73132;SDS011;61320;52.008;4.530;2022-09-12T02:02:37;13.58;;;13.58;;
73132;SDS011;61320;52.008;4.530;2022-09-12T02:04:47;13.79;;;13.79;;
73132;SDS011;61320;52.008;4.530;2022-09-12T02:07:30;14.00;;;14.00;;
73132;SDS011;61320;52.008;4.530;2022-09-12T02:10:11;14.06;;;14.06;;
73132;SDS011;61320;52.008;4.530;2022-09-12T02:12:43;13.75;;;13.75;;
73132;SDS011;61320;52.008;4.530;2022-09-12T02:15:34;14.04;;;14.04;;
73132;SDS011;61320;52.008;4.530;2022-09-12T02:18:04;14.51;;;14.51;;
73132;SDS011;61320;52.008;4.530;2022-09-12T02:20:35;14.59;;;14.59;;
73132;SDS011;61320;52.008;4.530;2022-09-12T02:23:05;14.24;;;14.23;;
73132;SDS011;61320;52.008;4.530;2022-09-12T02:25:40;14.97;;;14.97;;
73132;SDS011;61320;52.008;4.530;2022-09-12T02:28:13;15.38;;;15.38;;
73132;SDS011;61320;52.008;4.530;2022-09-12T02:30:48;15.36;;;15.36;;
73132;SDS011;61320;52.008;4.530;2022-09-12T02:33:26;14.81;;;14.78;;
73132;SDS011;61320;52.008;4.530;2022-09-12T02:36:13;15.08;;;15.07;;
73132;SDS011;61320;52.008;4.530;2022-09-12T02:38:52;14.62;;;14.62;;
73132;SDS011;61320;52.008;4.530;2022-09-12T02:41:19;14.75;;;14.75;;
73132;SDS011;61320;52.008;4.530;2022-09-12T02:43:47;15.48;;;15.45;;
73132;SDS011;61320;52.008;4.530;2022-09-12T02:46:23;15.79;;;15.79;;
73132;SDS011;61320;52.008;4.530;2022-09-12T02:49:01;15.43;;;15.43;;
73132;SDS011;61320;52.008;4.530;2022-09-12T02:51:27;16.49;;;16.49;;
73132;SDS011;61320;52.008;4.530;2022-09-12T02:53:53;17.09;;;17.09;;
73132;SDS011;61320;52.008;4.530;2022-09-12T02:56:23;17.33;;;17.33;;
73132;SDS011;61320;52.008;4.530;2022-09-12T02:58:53;17.32;;;17.32;;
73132;SDS011;61320;52.008;4.530;2022-09-12T03:06:36;17.25;;;17.25;;
73132;SDS011;61320;52.008;4.530;2022-09-12T03:09:21;17.00;;;16.99;;
73132;SDS011;61320;52.008;4.530;2022-09-12T03:12:02;16.65;;;16.65;;
73132;SDS011;61320;52.008;4.530;2022-09-12T03:14:51;16.82;;;16.82;;
73132;SDS011;61320;52.008;4.530;2022-09-12T03:20:43;17.44;;;17.44;;
73132;SDS011;61320;52.008;4.530;2022-09-12T03:26:26;16.37;;;16.37;;
73132;SDS011;61320;52.008;4.530;2022-09-12T03:29:02;16.97;;;16.97;;
73132;SDS011;61320;52.008;4.530;2022-09-12T03:31:31;16.82;;;16.82;;
73132;SDS011;61320;52.008;4.530;2022-09-12T03:33:58;17.06;;;17.04;;
73132;SDS011;61320;52.008;4.530;2022-09-12T03:36:25;15.88;;;15.88;;
73132;SDS011;61320;52.008;4.530;2022-09-12T03:38:52;15.89;;;15.86;;
73132;SDS011;61320;52.008;4.530;2022-09-12T03:41:18;16.84;;;16.70;;
73132;SDS011;61320;52.008;4.530;2022-09-12T03:43:45;16.03;;;16.03;;
73132;SDS011;61320;52.008;4.530;2022-09-12T03:46:11;16.09;;;16.09;;
73132;SDS011;61320;52.008;4.530;2022-09-12T03:48:38;16.15;;;16.15;;
73132;SDS011;61320;52.008;4.530;2022-09-12T03:51:08;15.40;;;15.40;;
73132;SDS011;61320;52.008;4.530;2022-09-12T03:53:36;16.16;;;16.16;;
73132;SDS011;61320;52.008;4.530;2022-09-12T03:56:06;16.52;;;16.52;;
73132;SDS011;61320;52.008;4.530;2022-09-12T03:58:33;16.36;;;16.36;;
73132;SDS011;61320;52.008;4.530;2022-09-12T04:01:05;16.47;;;16.47;;
73132;SDS011;61320;52.008;4.530;2022-09-12T04:03:31;17.01;;;17.01;;
73132;SDS011;61320;52.008;4.530;2022-09-12T04:05:57;16.68;;;16.68;;
73132;SDS011;61320;52.008;4.530;2022-09-12T04:08:22;16.93;;;16.87;;
73132;SDS011;61320;52.008;4.530;2022-09-12T04:10:48;16.90;;;16.90;;
73132;SDS011;61320;52.008;4.530;2022-09-12T04:13:13;17.35;;;17.35;;
73132;SDS011;61320;52.008;4.530;2022-09-12T04:15:41;16.49;;;16.49;;
73132;SDS011;61320;52.008;4.530;2022-09-12T04:18:07;16.97;;;16.96;;
73132;SDS011;61320;52.008;4.530;2022-09-12T04:20:32;16.88;;;16.87;;
73132;SDS011;61320;52.008;4.530;2022-09-12T04:22:58;16.91;;;16.91;;
73132;SDS011;61320;52.008;4.530;2022-09-12T04:25:23;17.14;;;17.14;;
73132;SDS011;61320;52.008;4.530;2022-09-12T04:27:49;17.70;;;17.70;;
73132;SDS011;61320;52.008;4.530;2022-09-12T04:30:14;17.39;;;17.38;;
73132;SDS011;61320;52.008;4.530;2022-09-12T04:32:40;17.28;;;17.28;;
73132;SDS011;61320;52.008;4.530;2022-09-12T04:35:05;17.66;;;17.58;;
73132;SDS011;61320;52.008;4.530;2022-09-12T04:37:31;16.97;;;16.97;;
73132;SDS011;61320;52.008;4.530;2022-09-12T04:39:57;17.53;;;17.53;;
73132;SDS011;61320;52.008;4.530;2022-09-12T04:42:23;17.51;;;17.50;;
73132;SDS011;61320;52.008;4.530;2022-09-12T04:44:49;16.70;;;16.70;;
73132;SDS011;61320;52.008;4.530;2022-09-12T04:47:14;18.23;;;18.23;;
73132;SDS011;61320;52.008;4.530;2022-09-12T04:49:40;19.25;;;19.19;;
73132;SDS011;61320;52.008;4.530;2022-09-12T04:52:06;18.93;;;18.93;;
73132;SDS011;61320;52.008;4.530;2022-09-12T04:54:32;19.27;;;19.27;;
73132;SDS011;61320;52.008;4.530;2022-09-12T04:56:58;19.53;;;19.53;;
73132;SDS011;61320;52.008;4.530;2022-09-12T04:59:24;19.84;;;19.84;;
73132;SDS011;61320;52.008;4.530;2022-09-12T05:01:50;19.97;;;19.97;;
73132;SDS011;61320;52.008;4.530;2022-09-12T05:04:16;20.09;;;20.08;;
73132;SDS011;61320;52.008;4.530;2022-09-12T05:06:42;20.83;;;20.76;;
73132;SDS011;61320;52.008;4.530;2022-09-12T05:09:09;20.71;;;20.62;;
73132;SDS011;61320;52.008;4.530;2022-09-12T05:11:38;21.32;;;21.32;;
73132;SDS011;61320;52.008;4.530;2022-09-12T05:14:05;21.55;;;21.47;;
73132;SDS011;61320;52.008;4.530;2022-09-12T05:16:31;20.56;;;20.56;;
73132;SDS011;61320;52.008;4.530;2022-09-12T05:18:57;20.77;;;20.77;;
73132;SDS011;61320;52.008;4.530;2022-09-12T05:21:25;20.98;;;20.98;;
73132;SDS011;61320;52.008;4.530;2022-09-12T05:23:51;21.05;;;21.05;;
73132;SDS011;61320;52.008;4.530;2022-09-12T05:26:19;21.21;;;21.19;;
73132;SDS011;61320;52.008;4.530;2022-09-12T05:28:46;21.97;;;21.97;;
73132;SDS011;61320;52.008;4.530;2022-09-12T05:31:17;20.63;;;20.58;;
73132;SDS011;61320;52.008;4.530;2022-09-12T05:33:46;21.96;;;21.67;;
73132;SDS011;61320;52.008;4.530;2022-09-12T05:36:14;22.03;;;21.81;;
73132;SDS011;61320;52.008;4.530;2022-09-12T05:38:41;21.43;;;21.40;;
73132;SDS011;61320;52.008;4.530;2022-09-12T05:41:08;20.83;;;20.83;;
73132;SDS011;61320;52.008;4.530;2022-09-12T05:43:36;21.68;;;21.65;;
73132;SDS011;61320;52.008;4.530;2022-09-12T05:46:08;21.36;;;21.34;;
73132;SDS011;61320;52.008;4.530;2022-09-12T05:48:36;21.68;;;21.67;;
73132;SDS011;61320;52.008;4.530;2022-09-12T05:51:08;21.67;;;21.62;;
73132;SDS011;61320;52.008;4.530;2022-09-12T05:53:36;21.39;;;21.37;;
73132;SDS011;61320;52.008;4.530;2022-09-12T05:58:30;21.77;;;21.77;;
73132;SDS011;61320;52.008;4.530;2022-09-12T06:00:59;22.01;;;21.85;;
73132;SDS011;61320;52.008;4.530;2022-09-12T06:03:26;21.38;;;21.27;;
73132;SDS011;61320;52.008;4.530;2022-09-12T06:05:51;23.51;;;23.47;;
73132;SDS011;61320;52.008;4.530;2022-09-12T06:08:16;21.85;;;21.83;;
73132;SDS011;61320;52.008;4.530;2022-09-12T06:10:42;21.27;;;21.19;;
73132;SDS011;61320;52.008;4.530;2022-09-12T06:13:08;20.92;;;20.83;;
73132;SDS011;61320;52.008;4.530;2022-09-12T06:15:33;22.46;;;22.39;;
73132;SDS011;61320;52.008;4.530;2022-09-12T06:17:58;21.67;;;21.66;;
73132;SDS011;61320;52.008;4.530;2022-09-12T06:20:24;21.73;;;21.48;;
73132;SDS011;61320;52.008;4.530;2022-09-12T06:22:51;22.29;;;22.02;;
73132;SDS011;61320;52.008;4.530;2022-09-12T06:25:17;21.43;;;21.38;;
73132;SDS011;61320;52.008;4.530;2022-09-12T06:27:43;21.00;;;20.98;;
73132;SDS011;61320;52.008;4.530;2022-09-12T06:30:08;21.07;;;21.07;;
73132;SDS011;61320;52.008;4.530;2022-09-12T06:32:34;22.60;;;22.42;;
73132;SDS011;61320;52.008;4.530;2022-09-12T06:34:59;22.09;;;22.09;;
73132;SDS011;61320;52.008;4.530;2022-09-12T06:37:25;22.38;;;22.30;;
73132;SDS011;61320;52.008;4.530;2022-09-12T06:39:50;22.74;;;22.74;;
73132;SDS011;61320;52.008;4.530;2022-09-12T06:42:16;22.73;;;22.73;;
73132;SDS011;61320;52.008;4.530;2022-09-12T06:44:43;22.82;;;22.82;;
73132;SDS011;61320;52.008;4.530;2022-09-12T06:47:09;23.05;;;23.00;;
73132;SDS011;61320;52.008;4.530;2022-09-12T06:49:37;23.20;;;23.19;;
73132;SDS011;61320;52.008;4.530;2022-09-12T06:52:03;22.90;;;22.72;;
73132;SDS011;61320;52.008;4.530;2022-09-12T06:54:28;23.15;;;23.15;;
73132;SDS011;61320;52.008;4.530;2022-09-12T06:56:53;23.80;;;23.44;;
73132;SDS011;61320;52.008;4.530;2022-09-12T06:59:19;23.80;;;23.70;;
73132;SDS011;61320;52.008;4.530;2022-09-12T07:01:44;24.94;;;24.84;;
73132;SDS011;61320;52.008;4.530;2022-09-12T07:04:10;24.88;;;24.78;;
73132;SDS011;61320;52.008;4.530;2022-09-12T07:06:41;25.13;;;25.10;;
73132;SDS011;61320;52.008;4.530;2022-09-12T07:09:10;24.96;;;24.96;;
73132;SDS011;61320;52.008;4.530;2022-09-12T07:11:38;24.28;;;24.24;;
73132;SDS011;61320;52.008;4.530;2022-09-12T07:14:06;24.35;;;24.29;;
73132;SDS011;61320;52.008;4.530;2022-09-12T07:16:34;24.99;;;24.82;;
73132;SDS011;61320;52.008;4.530;2022-09-12T07:19:00;24.40;;;24.40;;
73132;SDS011;61320;52.008;4.530;2022-09-12T07:21:28;24.67;;;24.62;;
73132;SDS011;61320;52.008;4.530;2022-09-12T07:23:54;25.39;;;25.38;;
73132;SDS011;61320;52.008;4.530;2022-09-12T07:26:22;24.91;;;24.90;;
73132;SDS011;61320;52.008;4.530;2022-09-12T07:28:51;25.31;;;25.05;;
73132;SDS011;61320;52.008;4.530;2022-09-12T07:31:19;26.39;;;25.75;;
73132;SDS011;61320;52.008;4.530;2022-09-12T07:33:47;24.81;;;24.76;;
73132;SDS011;61320;52.008;4.530;2022-09-12T07:36:14;24.21;;;24.08;;
73132;SDS011;61320;52.008;4.530;2022-09-12T07:38:42;25.02;;;25.01;;
73132;SDS011;61320;52.008;4.530;2022-09-12T07:41:09;23.69;;;23.69;;
73132;SDS011;61320;52.008;4.530;2022-09-12T07:43:39;23.82;;;23.77;;
73132;SDS011;61320;52.008;4.530;2022-09-12T07:46:07;24.12;;;24.05;;
73132;SDS011;61320;52.008;4.530;2022-09-12T07:48:34;22.56;;;22.56;;
73132;SDS011;61320;52.008;4.530;2022-09-12T07:51:01;22.76;;;22.73;;
73132;SDS011;61320;52.008;4.530;2022-09-12T07:53:30;23.32;;;23.30;;
73132;SDS011;61320;52.008;4.530;2022-09-12T07:55:58;23.30;;;23.16;;
73132;SDS011;61320;52.008;4.530;2022-09-12T07:58:24;22.71;;;22.65;;
73132;SDS011;61320;52.008;4.530;2022-09-12T08:00:51;22.52;;;22.36;;
73132;SDS011;61320;52.008;4.530;2022-09-12T08:03:16;21.49;;;21.40;;
73132;SDS011;61320;52.008;4.530;2022-09-12T08:05:42;22.76;;;22.65;;
73132;SDS011;61320;52.008;4.530;2022-09-12T08:08:08;21.67;;;21.56;;
73132;SDS011;61320;52.008;4.530;2022-09-12T08:10:34;22.88;;;22.72;;
73132;SDS011;61320;52.008;4.530;2022-09-12T08:13:00;21.91;;;21.89;;
73132;SDS011;61320;52.008;4.530;2022-09-12T08:15:25;22.07;;;22.06;;
73132;SDS011;61320;52.008;4.530;2022-09-12T08:17:51;21.15;;;21.13;;
73132;SDS011;61320;52.008;4.530;2022-09-12T08:20:16;20.98;;;20.97;;
73132;SDS011;61320;52.008;4.530;2022-09-12T08:22:42;21.36;;;21.33;;
73132;SDS011;61320;52.008;4.530;2022-09-12T08:25:08;21.56;;;21.51;;
73132;SDS011;61320;52.008;4.530;2022-09-12T08:27:34;20.56;;;20.56;;
73132;SDS011;61320;52.008;4.530;2022-09-12T08:30:00;20.00;;;20.00;;
73132;SDS011;61320;52.008;4.530;2022-09-12T08:32:26;19.43;;;19.43;;
73132;SDS011;61320;52.008;4.530;2022-09-12T08:34:51;20.31;;;20.14;;
73132;SDS011;61320;52.008;4.530;2022-09-12T08:37:17;20.80;;;20.69;;
73132;SDS011;61320;52.008;4.530;2022-09-12T08:39:43;18.74;;;18.73;;
73132;SDS011;61320;52.008;4.530;2022-09-12T08:42:08;18.07;;;18.07;;
73132;SDS011;61320;52.008;4.530;2022-09-12T08:45:04;16.80;;;16.80;;
73132;SDS011;61320;52.008;4.530;2022-09-12T08:47:42;14.67;;;14.66;;
73132;SDS011;61320;52.008;4.530;2022-09-12T08:50:18;13.82;;;13.79;;
73132;SDS011;61320;52.008;4.530;2022-09-12T08:57:49;11.31;;;11.31;;
73132;SDS011;61320;52.008;4.530;2022-09-12T09:00:16;10.99;;;10.83;;
73132;SDS011;61320;52.008;4.530;2022-09-12T09:02:47;10.30;;;10.30;;
73132;SDS011;61320;52.008;4.530;2022-09-12T09:05:41;10.55;;;10.55;;
73132;SDS011;61320;52.008;4.530;2022-09-12T09:08:50;10.67;;;10.67;;
73132;SDS011;61320;52.008;4.530;2022-09-12T09:11:33;9.60;;;9.60;;
73132;SDS011;61320;52.008;4.530;2022-09-12T09:14:22;9.35;;;9.35;;
73132;SDS011;61320;52.008;4.530;2022-09-12T09:17:28;9.01;;;9.01;;
73132;SDS011;61320;52.008;4.530;2022-09-12T09:20:04;9.31;;;9.31;;
73132;SDS011;61320;52.008;4.530;2022-09-12T09:22:55;9.23;;;9.23;;
73132;SDS011;61320;52.008;4.530;2022-09-12T09:31:32;8.01;;;8.01;;
73132;SDS011;61320;52.008;4.530;2022-09-12T09:34:24;8.89;;;8.89;;
73132;SDS011;61320;52.008;4.530;2022-09-12T09:37:17;8.21;;;8.21;;
73132;SDS011;61320;52.008;4.530;2022-09-12T09:45:50;7.33;;;7.33;;
73132;SDS011;61320;52.008;4.530;2022-09-12T09:48:21;7.34;;;7.34;;
73132;SDS011;61320;52.008;4.530;2022-09-12T09:51:02;7.94;;;7.94;;
73132;SDS011;61320;52.008;4.530;2022-09-12T09:53:36;8.17;;;8.17;;
73132;SDS011;61320;52.008;4.530;2022-09-12T09:56:27;8.01;;;8.01;;
73132;SDS011;61320;52.008;4.530;2022-09-12T09:59:15;8.49;;;8.49;;
73132;SDS011;61320;52.008;4.530;2022-09-12T10:01:47;8.63;;;8.63;;
73132;SDS011;61320;52.008;4.530;2022-09-12T10:04:20;8.45;;;8.45;;
73132;SDS011;61320;52.008;4.530;2022-09-12T10:06:52;8.06;;;8.06;;
73132;SDS011;61320;52.008;4.530;2022-09-12T10:09:25;8.12;;;8.12;;
73132;SDS011;61320;52.008;4.530;2022-09-12T10:11:53;7.63;;;7.63;;
73132;SDS011;61320;52.008;4.530;2022-09-12T10:14:30;7.48;;;7.48;;
73132;SDS011;61320;52.008;4.530;2022-09-12T10:19:47;6.63;;;6.63;;
73132;SDS011;61320;52.008;4.530;2022-09-12T10:22:19;6.70;;;6.70;;
73132;SDS011;61320;52.008;4.530;2022-09-12T10:24:52;6.19;;;6.19;;
73132;SDS011;61320;52.008;4.530;2022-09-12T10:27:25;6.17;;;6.17;;
73132;SDS011;61320;52.008;4.530;2022-09-12T10:29:55;6.17;;;6.17;;
73132;SDS011;61320;52.008;4.530;2022-09-12T10:32:41;5.59;;;5.59;;
73132;SDS011;61320;52.008;4.530;2022-09-12T10:35:27;5.10;;;5.10;;
73132;SDS011;61320;52.008;4.530;2022-09-12T10:41:17;5.04;;;5.04;;
73132;SDS011;61320;52.008;4.530;2022-09-12T10:43:46;5.64;;;5.64;;
73132;SDS011;61320;52.008;4.530;2022-09-12T10:48:43;6.02;;;6.02;;
73132;SDS011;61320;52.008;4.530;2022-09-12T10:53:56;5.29;;;5.29;;
73132;SDS011;61320;52.008;4.530;2022-09-12T11:06:08;6.56;;;6.56;;
73132;SDS011;61320;52.008;4.530;2022-09-12T11:14:13;6.54;;;6.54;;
73132;SDS011;61320;52.008;4.530;2022-09-12T11:16:48;6.98;;;6.98;;
73132;SDS011;61320;52.008;4.530;2022-09-12T11:22:14;6.56;;;6.56;;
73132;SDS011;61320;52.008;4.530;2022-09-12T11:25:11;6.14;;;6.14;;
73132;SDS011;61320;52.008;4.530;2022-09-12T11:30:45;6.14;;;6.14;;
73132;SDS011;61320;52.008;4.530;2022-09-12T11:36:03;6.17;;;6.17;;
73132;SDS011;61320;52.008;4.530;2022-09-12T11:46:33;6.57;;;6.57;;
73132;SDS011;61320;52.008;4.530;2022-09-12T11:52:02;5.50;;;5.50;;
73132;SDS011;61320;52.008;4.530;2022-09-12T11:54:47;5.49;;;5.49;;
73132;SDS011;61320;52.008;4.530;2022-09-12T12:00:06;5.99;;;5.99;;
73132;SDS011;61320;52.008;4.530;2022-09-12T12:02:46;5.84;;;5.84;;
73132;SDS011;61320;52.008;4.530;2022-09-12T12:08:22;5.26;;;5.26;;
73132;SDS011;61320;52.008;4.530;2022-09-12T12:10:50;5.87;;;5.87;;
73132;SDS011;61320;52.008;4.530;2022-09-12T12:13:27;6.08;;;6.08;;
73132;SDS011;61320;52.008;4.530;2022-09-12T12:18:56;6.81;;;6.81;;
73132;SDS011;61320;52.008;4.530;2022-09-12T12:21:40;5.67;;;5.67;;
73132;SDS011;61320;52.008;4.530;2022-09-12T12:24:14;5.69;;;5.69;;
73132;SDS011;61320;52.008;4.530;2022-09-12T12:42:17;6.89;;;6.89;;
73132;SDS011;61320;52.008;4.530;2022-09-12T12:45:44;6.18;;;6.18;;
73132;SDS011;61320;52.008;4.530;2022-09-12T12:47:52;6.02;;;6.02;;
73132;SDS011;61320;52.008;4.530;2022-09-12T12:50:24;6.26;;;6.26;;
73132;SDS011;61320;52.008;4.530;2022-09-12T12:52:57;6.15;;;6.15;;
73132;SDS011;61320;52.008;4.530;2022-09-12T12:55:27;6.96;;;6.96;;
73132;SDS011;61320;52.008;4.530;2022-09-12T12:58:02;6.84;;;6.84;;
73132;SDS011;61320;52.008;4.530;2022-09-12T13:00:35;7.57;;;7.57;;
73132;SDS011;61320;52.008;4.530;2022-09-12T13:11:02;7.37;;;7.37;;
73132;SDS011;61320;52.008;4.530;2022-09-12T13:13:55;6.57;;;6.57;;
73132;SDS011;61320;52.008;4.530;2022-09-12T13:16:34;7.28;;;7.28;;
73132;SDS011;61320;52.008;4.530;2022-09-12T13:19:10;7.80;;;7.80;;
73132;SDS011;61320;52.008;4.530;2022-09-12T13:21:53;7.81;;;7.81;;
73132;SDS011;61320;52.008;4.530;2022-09-12T13:24:33;7.38;;;7.38;;
73132;SDS011;61320;52.008;4.530;2022-09-12T13:27:29;8.22;;;8.22;;
73132;SDS011;61320;52.008;4.530;2022-09-12T13:30:07;7.45;;;7.45;;
73132;SDS011;61320;52.008;4.530;2022-09-12T13:32:41;7.79;;;7.79;;
73132;SDS011;61320;52.008;4.530;2022-09-12T13:35:11;6.59;;;6.59;;
73132;SDS011;61320;52.008;4.530;2022-09-12T13:37:56;7.34;;;7.34;;
73132;SDS011;61320;52.008;4.530;2022-09-12T13:40:53;6.19;;;6.19;;
73132;SDS011;61320;52.008;4.530;2022-09-12T13:43:35;5.37;;;5.37;;
73132;SDS011;61320;52.008;4.530;2022-09-12T13:46:19;6.01;;;6.01;;
73132;SDS011;61320;52.008;4.530;2022-09-12T13:48:54;6.14;;;6.14;;
73132;SDS011;61320;52.008;4.530;2022-09-12T13:51:23;5.70;;;5.70;;
73132;SDS011;61320;52.008;4.530;2022-09-12T13:53:52;5.30;;;5.30;;
73132;SDS011;61320;52.008;4.530;2022-09-12T13:56:24;5.29;;;5.29;;
73132;SDS011;61320;52.008;4.530;2022-09-12T13:58:51;4.97;;;4.97;;
73132;SDS011;61320;52.008;4.530;2022-09-12T14:01:34;4.87;;;4.87;;
73132;SDS011;61320;52.008;4.530;2022-09-12T14:04:19;4.47;;;4.47;;
73132;SDS011;61320;52.008;4.530;2022-09-12T14:07:25;4.70;;;4.70;;
73132;SDS011;61320;52.008;4.530;2022-09-12T14:09:57;4.52;;;4.52;;
73132;SDS011;61320;52.008;4.530;2022-09-12T14:12:27;4.32;;;4.32;;
73132;SDS011;61320;52.008;4.530;2022-09-12T14:14:59;4.29;;;4.29;;
73132;SDS011;61320;52.008;4.530;2022-09-12T14:17:37;4.52;;;4.52;;
73132;SDS011;61320;52.008;4.530;2022-09-12T14:20:11;4.89;;;4.89;;
73132;SDS011;61320;52.008;4.530;2022-09-12T14:22:52;4.72;;;4.72;;
73132;SDS011;61320;52.008;4.530;2022-09-12T14:25:29;4.81;;;4.81;;
73132;SDS011;61320;52.008;4.530;2022-09-12T14:28:11;4.56;;;4.56;;
73132;SDS011;61320;52.008;4.530;2022-09-12T14:30:55;3.81;;;3.81;;
73132;SDS011;61320;52.008;4.530;2022-09-12T14:33:31;4.25;;;4.25;;
73132;SDS011;61320;52.008;4.530;2022-09-12T14:36:29;4.06;;;4.06;;
73132;SDS011;61320;52.008;4.530;2022-09-12T14:39:12;3.85;;;3.85;;
73132;SDS011;61320;52.008;4.530;2022-09-12T14:42:06;4.65;;;4.65;;
73132;SDS011;61320;52.008;4.530;2022-09-12T14:44:51;4.23;;;4.23;;
73132;SDS011;61320;52.008;4.530;2022-09-12T14:47:23;4.77;;;4.77;;
73132;SDS011;61320;52.008;4.530;2022-09-12T14:49:52;4.22;;;4.22;;
73132;SDS011;61320;52.008;4.530;2022-09-12T14:54:56;3.76;;;3.76;;
73132;SDS011;61320;52.008;4.530;2022-09-12T15:00:15;3.97;;;3.97;;
73132;SDS011;61320;52.008;4.530;2022-09-12T15:02:46;3.93;;;3.93;;
73132;SDS011;61320;52.008;4.530;2022-09-12T15:05:14;3.85;;;3.85;;
73132;SDS011;61320;52.008;4.530;2022-09-12T15:10:24;3.97;;;3.97;;
73132;SDS011;61320;52.008;4.530;2022-09-12T15:15:34;3.90;;;3.90;;
73132;SDS011;61320;52.008;4.530;2022-09-12T15:18:00;3.84;;;3.84;;
73132;SDS011;61320;52.008;4.530;2022-09-12T15:20:34;3.88;;;3.88;;
73132;SDS011;61320;52.008;4.530;2022-09-12T15:23:03;4.18;;;4.18;;
73132;SDS011;61320;52.008;4.530;2022-09-12T15:25:36;4.60;;;4.60;;
73132;SDS011;61320;52.008;4.530;2022-09-12T15:28:04;4.37;;;4.37;;
73132;SDS011;61320;52.008;4.530;2022-09-12T15:30:40;4.26;;;4.26;;
73132;SDS011;61320;52.008;4.530;2022-09-12T15:33:07;3.97;;;3.97;;
73132;SDS011;61320;52.008;4.530;2022-09-12T15:35:33;4.03;;;4.03;;
73132;SDS011;61320;52.008;4.530;2022-09-12T15:37:59;4.63;;;4.63;;
73132;SDS011;61320;52.008;4.530;2022-09-12T15:40:24;5.36;;;5.36;;
73132;SDS011;61320;52.008;4.530;2022-09-12T15:42:50;5.33;;;5.33;;
73132;SDS011;61320;52.008;4.530;2022-09-12T15:45:25;4.87;;;4.87;;
73132;SDS011;61320;52.008;4.530;2022-09-12T15:47:53;5.12;;;5.12;;
73132;SDS011;61320;52.008;4.530;2022-09-12T15:50:19;4.99;;;4.99;;
73132;SDS011;61320;52.008;4.530;2022-09-12T15:52:45;5.12;;;5.12;;
73132;SDS011;61320;52.008;4.530;2022-09-12T15:55:12;4.98;;;4.98;;
73132;SDS011;61320;52.008;4.530;2022-09-12T15:57:42;5.32;;;5.32;;
73132;SDS011;61320;52.008;4.530;2022-09-12T16:00:08;5.33;;;5.33;;
73132;SDS011;61320;52.008;4.530;2022-09-12T16:02:37;5.51;;;5.51;;
73132;SDS011;61320;52.008;4.530;2022-09-12T16:05:03;5.51;;;5.51;;
73132;SDS011;61320;52.008;4.530;2022-09-12T16:07:30;5.22;;;5.22;;
73132;SDS011;61320;52.008;4.530;2022-09-12T16:09:55;5.50;;;5.50;;
73132;SDS011;61320;52.008;4.530;2022-09-12T16:12:21;5.26;;;5.26;;
73132;SDS011;61320;52.008;4.530;2022-09-12T16:14:46;5.07;;;5.07;;
73132;SDS011;61320;52.008;4.530;2022-09-12T16:17:12;5.52;;;5.52;;
73132;SDS011;61320;52.008;4.530;2022-09-12T16:19:37;5.76;;;5.76;;
73132;SDS011;61320;52.008;4.530;2022-09-12T16:22:03;5.61;;;5.61;;
73132;SDS011;61320;52.008;4.530;2022-09-12T16:24:28;5.30;;;5.30;;
73132;SDS011;61320;52.008;4.530;2022-09-12T16:26:54;5.58;;;5.58;;
73132;SDS011;61320;52.008;4.530;2022-09-12T16:29:22;5.23;;;5.23;;
73132;SDS011;61320;52.008;4.530;2022-09-12T16:31:47;5.32;;;5.32;;
73132;SDS011;61320;52.008;4.530;2022-09-12T16:34:13;5.56;;;5.56;;
73132;SDS011;61320;52.008;4.530;2022-09-12T16:36:39;5.26;;;5.26;;
73132;SDS011;61320;52.008;4.530;2022-09-12T16:39:04;5.32;;;5.32;;
73132;SDS011;61320;52.008;4.530;2022-09-12T16:41:33;5.52;;;5.52;;
73132;SDS011;61320;52.008;4.530;2022-09-12T16:43:59;5.32;;;5.32;;
73132;SDS011;61320;52.008;4.530;2022-09-12T16:46:25;5.46;;;5.46;;
73132;SDS011;61320;52.008;4.530;2022-09-12T16:48:55;5.92;;;5.92;;
73132;SDS011;61320;52.008;4.530;2022-09-12T16:51:26;6.17;;;6.17;;
73132;SDS011;61320;52.008;4.530;2022-09-12T16:53:55;6.70;;;6.70;;
73132;SDS011;61320;52.008;4.530;2022-09-12T16:56:21;6.14;;;6.14;;
73132;SDS011;61320;52.008;4.530;2022-09-12T16:58:48;5.21;;;5.21;;
73132;SDS011;61320;52.008;4.530;2022-09-12T17:01:18;5.58;;;5.58;;
73132;SDS011;61320;52.008;4.530;2022-09-12T17:03:45;5.33;;;5.33;;
73132;SDS011;61320;52.008;4.530;2022-09-12T17:06:12;5.13;;;5.13;;
73132;SDS011;61320;52.008;4.530;2022-09-12T17:08:41;5.26;;;5.26;;
73132;SDS011;61320;52.008;4.530;2022-09-12T17:11:14;5.63;;;5.63;;
73132;SDS011;61320;52.008;4.530;2022-09-12T17:13:45;5.31;;;5.31;;
73132;SDS011;61320;52.008;4.530;2022-09-12T17:16:18;5.54;;;5.54;;
73132;SDS011;61320;52.008;4.530;2022-09-12T17:18:44;6.34;;;6.34;;
73132;SDS011;61320;52.008;4.530;2022-09-12T17:21:11;6.93;;;6.93;;
73132;SDS011;61320;52.008;4.530;2022-09-12T17:23:37;6.37;;;6.37;;
73132;SDS011;61320;52.008;4.530;2022-09-12T17:26:03;5.86;;;5.86;;
73132;SDS011;61320;52.008;4.530;2022-09-12T17:28:32;5.83;;;5.83;;
73132;SDS011;61320;52.008;4.530;2022-09-12T17:31:02;5.31;;;5.31;;
73132;SDS011;61320;52.008;4.530;2022-09-12T17:33:31;5.22;;;5.22;;
73132;SDS011;61320;52.008;4.530;2022-09-12T17:36:04;5.64;;;5.64;;
73132;SDS011;61320;52.008;4.530;2022-09-12T17:38:32;5.87;;;5.87;;
73132;SDS011;61320;52.008;4.530;2022-09-12T17:41:10;5.73;;;5.73;;
73132;SDS011;61320;52.008;4.530;2022-09-12T17:43:51;5.30;;;5.30;;
73132;SDS011;61320;52.008;4.530;2022-09-12T17:46:21;5.41;;;5.41;;
73132;SDS011;61320;52.008;4.530;2022-09-12T17:49:03;5.49;;;5.49;;
73132;SDS011;61320;52.008;4.530;2022-09-12T17:51:30;5.55;;;5.55;;
73132;SDS011;61320;52.008;4.530;2022-09-12T17:53:57;5.29;;;5.29;;
73132;SDS011;61320;52.008;4.530;2022-09-12T17:56:25;5.10;;;5.10;;
73132;SDS011;61320;52.008;4.530;2022-09-12T17:58:56;4.72;;;4.72;;
73132;SDS011;61320;52.008;4.530;2022-09-12T18:01:23;4.65;;;4.65;;
73132;SDS011;61320;52.008;4.530;2022-09-12T18:04:08;5.06;;;5.06;;
73132;SDS011;61320;52.008;4.530;2022-09-12T18:06:35;5.86;;;5.86;;
73132;SDS011;61320;52.008;4.530;2022-09-12T18:09:02;6.27;;;6.27;;
73132;SDS011;61320;52.008;4.530;2022-09-12T18:11:29;6.14;;;6.14;;
73132;SDS011;61320;52.008;4.530;2022-09-12T18:13:57;5.48;;;5.48;;
73132;SDS011;61320;52.008;4.530;2022-09-12T18:16:24;5.28;;;5.28;;
73132;SDS011;61320;52.008;4.530;2022-09-12T18:18:52;5.23;;;5.23;;
73132;SDS011;61320;52.008;4.530;2022-09-12T18:21:18;5.13;;;5.13;;
73132;SDS011;61320;52.008;4.530;2022-09-12T18:23:44;5.28;;;5.28;;
73132;SDS011;61320;52.008;4.530;2022-09-12T18:26:20;4.63;;;4.63;;
73132;SDS011;61320;52.008;4.530;2022-09-12T18:28:49;5.09;;;5.09;;
73132;SDS011;61320;52.008;4.530;2022-09-12T18:31:15;5.14;;;5.14;;
73132;SDS011;61320;52.008;4.530;2022-09-12T18:33:43;5.06;;;5.06;;
73132;SDS011;61320;52.008;4.530;2022-09-12T18:36:11;5.37;;;5.37;;
73132;SDS011;61320;52.008;4.530;2022-09-12T18:38:38;5.79;;;5.79;;
73132;SDS011;61320;52.008;4.530;2022-09-12T18:41:24;5.65;;;5.65;;
73132;SDS011;61320;52.008;4.530;2022-09-12T18:43:54;5.52;;;5.52;;
73132;SDS011;61320;52.008;4.530;2022-09-12T18:50:48;5.78;;;5.78;;